sensor_id;sensor_type;location;lat;lon;timestamp;P1;durP1;ratioP1;P2;durP2;ratioP2
23046;SDS011;11691;51.462;6.902;2023-08-06T00:02:25;6.30;;;3.50;;
23046;SDS011;11691;51.462;6.902;2023-08-06T00:04:51;5.47;;;3.00;;
23046;SDS011;11691;51.462;6.902;2023-08-06T00:07:17;6.03;;;3.13;;
23046;SDS011;11691;51.462;6.902;2023-08-06T00:09:43;8.73;;;3.50;;
23046;SDS011;11691;51.462;6.902;2023-08-06T00:12:09;5.47;;;3.30;;
23046;SDS011;11691;51.462;6.902;2023-08-06T00:14:35;5.13;;;3.25;;
23046;SDS011;11691;51.462;6.902;2023-08-06T00:17:01;5.68;;;3.10;;
23046;SDS011;11691;51.462;6.902;2023-08-06T00:19:28;4.30;;;2.95;;
23046;SDS011;11691;51.462;6.902;2023-08-06T00:21:54;3.33;;;3.00;;
23046;SDS011;11691;51.462;6.902;2023-08-06T00:24:19;6.38;;;3.28;;
23046;SDS011;11691;51.462;6.902;2023-08-06T00:26:45;8.32;;;3.70;;
23046;SDS011;11691;51.462;6.902;2023-08-06T00:29:11;6.50;;;3.10;;
23046;SDS011;11691;51.462;6.902;2023-08-06T00:31:37;5.90;;;3.25;;
23046;SDS011;11691;51.462;6.902;2023-08-06T00:34:04;3.92;;;3.15;;
23046;SDS011;11691;51.462;6.902;2023-08-06T00:36:29;6.70;;;3.00;;
23046;SDS011;11691;51.462;6.902;2023-08-06T00:38:55;6.07;;;3.30;;
23046;SDS011;11691;51.462;6.902;2023-08-06T00:41:21;4.88;;;3.30;;
23046;SDS011;11691;51.462;6.902;2023-08-06T00:43:47;5.15;;;3.42;;
23046;SDS011;11691;51.462;6.902;2023-08-06T00:46:13;5.07;;;3.30;;
23046;SDS011;11691;51.462;6.902;2023-08-06T00:48:40;4.40;;;3.40;;
23046;SDS011;11691;51.462;6.902;2023-08-06T00:51:06;6.65;;;3.35;;
23046;SDS011;11691;51.462;6.902;2023-08-06T00:53:34;4.45;;;3.45;;
23046;SDS011;11691;51.462;6.902;2023-08-06T00:56:00;3.88;;;2.88;;
23046;SDS011;11691;51.462;6.902;2023-08-06T00:58:26;3.55;;;2.67;;
23046;SDS011;11691;51.462;6.902;2023-08-06T01:00:52;6.00;;;2.83;;
23046;SDS011;11691;51.462;6.902;2023-08-06T01:03:18;6.65;;;2.80;;
23046;SDS011;11691;51.462;6.902;2023-08-06T01:05:44;5.63;;;3.10;;
23046;SDS011;11691;51.462;6.902;2023-08-06T01:13:38;3.88;;;3.10;;
23046;SDS011;11691;51.462;6.902;2023-08-06T01:16:13;5.22;;;3.25;;
23046;SDS011;11691;51.462;6.902;2023-08-06T01:18:41;6.32;;;3.20;;
23046;SDS011;11691;51.462;6.902;2023-08-06T01:21:11;5.93;;;3.00;;
23046;SDS011;11691;51.462;6.902;2023-08-06T01:23:37;5.68;;;3.33;;
23046;SDS011;11691;51.462;6.902;2023-08-06T01:29:06;6.70;;;3.10;;
23046;SDS011;11691;51.462;6.902;2023-08-06T01:31:35;4.22;;;3.03;;
23046;SDS011;11691;51.462;6.902;2023-08-06T01:34:01;4.55;;;2.92;;
23046;SDS011;11691;51.462;6.902;2023-08-06T01:36:30;7.03;;;3.20;;
23046;SDS011;11691;51.462;6.902;2023-08-06T01:38:56;3.88;;;2.80;;
23046;SDS011;11691;51.462;6.902;2023-08-06T01:41:22;4.07;;;3.05;;
23046;SDS011;11691;51.462;6.902;2023-08-06T01:43:48;5.28;;;2.88;;
23046;SDS011;11691;51.462;6.902;2023-08-06T01:46:14;3.95;;;3.05;;
23046;SDS011;11691;51.462;6.902;2023-08-06T01:48:40;4.90;;;3.63;;
23046;SDS011;11691;51.462;6.902;2023-08-06T01:51:06;4.40;;;2.75;;
23046;SDS011;11691;51.462;6.902;2023-08-06T01:53:33;3.67;;;2.70;;
23046;SDS011;11691;51.462;6.902;2023-08-06T01:55:59;4.60;;;3.05;;
23046;SDS011;11691;51.462;6.902;2023-08-06T01:58:25;6.25;;;2.38;;
23046;SDS011;11691;51.462;6.902;2023-08-06T02:00:51;5.03;;;2.88;;
23046;SDS011;11691;51.462;6.902;2023-08-06T02:03:17;4.50;;;3.05;;
23046;SDS011;11691;51.462;6.902;2023-08-06T02:05:43;4.47;;;2.95;;
23046;SDS011;11691;51.462;6.902;2023-08-06T02:08:10;8.55;;;2.83;;
23046;SDS011;11691;51.462;6.902;2023-08-06T02:10:36;5.40;;;2.80;;
23046;SDS011;11691;51.462;6.902;2023-08-06T02:13:02;3.42;;;2.65;;
23046;SDS011;11691;51.462;6.902;2023-08-06T02:15:28;5.75;;;2.90;;
23046;SDS011;11691;51.462;6.902;2023-08-06T02:17:54;8.30;;;2.80;;
23046;SDS011;11691;51.462;6.902;2023-08-06T02:20:20;3.60;;;2.58;;
23046;SDS011;11691;51.462;6.902;2023-08-06T02:22:46;6.20;;;3.10;;
23046;SDS011;11691;51.462;6.902;2023-08-06T02:25:12;4.85;;;2.70;;
23046;SDS011;11691;51.462;6.902;2023-08-06T02:27:38;5.82;;;2.92;;
23046;SDS011;11691;51.462;6.902;2023-08-06T02:30:05;5.70;;;3.10;;
23046;SDS011;11691;51.462;6.902;2023-08-06T02:32:31;3.80;;;2.88;;
23046;SDS011;11691;51.462;6.902;2023-08-06T02:34:58;6.75;;;2.83;;
23046;SDS011;11691;51.462;6.902;2023-08-06T02:37:24;3.10;;;2.55;;
23046;SDS011;11691;51.462;6.902;2023-08-06T02:39:50;4.97;;;2.83;;
23046;SDS011;11691;51.462;6.902;2023-08-06T02:42:16;2.92;;;2.63;;
23046;SDS011;11691;51.462;6.902;2023-08-06T02:44:42;5.90;;;2.63;;
23046;SDS011;11691;51.462;6.902;2023-08-06T02:47:08;3.78;;;2.42;;
23046;SDS011;11691;51.462;6.902;2023-08-06T02:49:34;4.57;;;2.72;;
23046;SDS011;11691;51.462;6.902;2023-08-06T02:52:00;4.15;;;2.88;;
23046;SDS011;11691;51.462;6.902;2023-08-06T02:54:26;5.13;;;2.65;;
23046;SDS011;11691;51.462;6.902;2023-08-06T02:56:51;4.75;;;2.42;;
23046;SDS011;11691;51.462;6.902;2023-08-06T02:59:17;3.38;;;2.33;;
23046;SDS011;11691;51.462;6.902;2023-08-06T03:01:43;4.50;;;2.58;;
23046;SDS011;11691;51.462;6.902;2023-08-06T03:04:09;4.00;;;2.13;;
23046;SDS011;11691;51.462;6.902;2023-08-06T03:06:35;4.93;;;2.65;;
23046;SDS011;11691;51.462;6.902;2023-08-06T03:09:01;3.75;;;2.70;;
23046;SDS011;11691;51.462;6.902;2023-08-06T03:11:27;3.63;;;2.67;;
23046;SDS011;11691;51.462;6.902;2023-08-06T03:13:53;8.00;;;2.83;;
23046;SDS011;11691;51.462;6.902;2023-08-06T03:16:19;4.10;;;2.60;;
23046;SDS011;11691;51.462;6.902;2023-08-06T03:18:45;3.03;;;2.25;;
23046;SDS011;11691;51.462;6.902;2023-08-06T03:21:12;7.40;;;2.50;;
23046;SDS011;11691;51.462;6.902;2023-08-06T03:23:38;5.90;;;2.78;;
23046;SDS011;11691;51.462;6.902;2023-08-06T03:26:04;3.67;;;2.30;;
23046;SDS011;11691;51.462;6.902;2023-08-06T03:28:30;3.63;;;2.72;;
23046;SDS011;11691;51.462;6.902;2023-08-06T03:30:59;5.45;;;2.80;;
23046;SDS011;11691;51.462;6.902;2023-08-06T03:33:26;2.50;;;2.30;;
23046;SDS011;11691;51.462;6.902;2023-08-06T03:35:52;4.30;;;2.20;;
23046;SDS011;11691;51.462;6.902;2023-08-06T03:38:18;6.60;;;2.72;;
23046;SDS011;11691;51.462;6.902;2023-08-06T03:40:44;3.97;;;2.38;;
23046;SDS011;11691;51.462;6.902;2023-08-06T03:43:10;4.38;;;2.53;;
23046;SDS011;11691;51.462;6.902;2023-08-06T03:45:36;3.35;;;2.50;;
23046;SDS011;11691;51.462;6.902;2023-08-06T03:48:02;4.30;;;2.53;;
23046;SDS011;11691;51.462;6.902;2023-08-06T03:50:28;4.07;;;2.50;;
23046;SDS011;11691;51.462;6.902;2023-08-06T03:52:53;4.70;;;2.30;;
23046;SDS011;11691;51.462;6.902;2023-08-06T03:55:19;3.30;;;2.15;;
23046;SDS011;11691;51.462;6.902;2023-08-06T03:57:45;2.90;;;2.50;;
23046;SDS011;11691;51.462;6.902;2023-08-06T04:00:11;5.28;;;2.65;;
23046;SDS011;11691;51.462;6.902;2023-08-06T04:02:37;4.53;;;2.40;;
23046;SDS011;11691;51.462;6.902;2023-08-06T04:05:03;5.65;;;2.60;;
23046;SDS011;11691;51.462;6.902;2023-08-06T04:07:29;4.78;;;2.58;;
23046;SDS011;11691;51.462;6.902;2023-08-06T04:09:57;4.45;;;2.63;;
23046;SDS011;11691;51.462;6.902;2023-08-06T04:12:23;4.05;;;2.60;;
23046;SDS011;11691;51.462;6.902;2023-08-06T04:14:50;3.50;;;2.42;;
23046;SDS011;11691;51.462;6.902;2023-08-06T04:17:17;5.32;;;2.35;;
23046;SDS011;11691;51.462;6.902;2023-08-06T04:19:45;3.60;;;2.60;;
23046;SDS011;11691;51.462;6.902;2023-08-06T04:22:15;3.08;;;2.38;;
23046;SDS011;11691;51.462;6.902;2023-08-06T04:24:41;3.67;;;2.67;;
23046;SDS011;11691;51.462;6.902;2023-08-06T04:27:08;5.20;;;2.50;;
23046;SDS011;11691;51.462;6.902;2023-08-06T04:29:34;2.47;;;2.13;;
23046;SDS011;11691;51.462;6.902;2023-08-06T04:32:00;4.13;;;2.17;;
23046;SDS011;11691;51.462;6.902;2023-08-06T04:34:26;3.17;;;2.13;;
23046;SDS011;11691;51.462;6.902;2023-08-06T04:36:52;9.13;;;2.42;;
23046;SDS011;11691;51.462;6.902;2023-08-06T04:39:18;3.65;;;2.25;;
23046;SDS011;11691;51.462;6.902;2023-08-06T04:41:44;3.85;;;2.60;;
23046;SDS011;11691;51.462;6.902;2023-08-06T04:44:10;4.00;;;2.58;;
23046;SDS011;11691;51.462;6.902;2023-08-06T04:46:36;6.68;;;2.67;;
23046;SDS011;11691;51.462;6.902;2023-08-06T04:49:02;3.97;;;2.65;;
23046;SDS011;11691;51.462;6.902;2023-08-06T04:51:28;5.90;;;2.63;;
23046;SDS011;11691;51.462;6.902;2023-08-06T04:53:54;4.57;;;2.72;;
23046;SDS011;11691;51.462;6.902;2023-08-06T04:56:20;4.43;;;2.70;;
23046;SDS011;11691;51.462;6.902;2023-08-06T04:58:46;3.97;;;2.95;;
23046;SDS011;11691;51.462;6.902;2023-08-06T05:01:12;3.75;;;2.42;;
23046;SDS011;11691;51.462;6.902;2023-08-06T05:03:38;3.95;;;2.45;;
23046;SDS011;11691;51.462;6.902;2023-08-06T05:06:04;4.47;;;2.60;;
23046;SDS011;11691;51.462;6.902;2023-08-06T05:08:30;2.80;;;2.38;;
23046;SDS011;11691;51.462;6.902;2023-08-06T05:10:56;2.95;;;2.33;;
23046;SDS011;11691;51.462;6.902;2023-08-06T05:13:22;4.40;;;2.83;;
23046;SDS011;11691;51.462;6.902;2023-08-06T05:15:48;4.53;;;2.80;;
23046;SDS011;11691;51.462;6.902;2023-08-06T05:18:14;2.95;;;2.50;;
23046;SDS011;11691;51.462;6.902;2023-08-06T05:20:40;6.20;;;2.80;;
23046;SDS011;11691;51.462;6.902;2023-08-06T05:23:06;3.65;;;2.33;;
23046;SDS011;11691;51.462;6.902;2023-08-06T05:25:34;2.88;;;2.42;;
23046;SDS011;11691;51.462;6.902;2023-08-06T05:28:00;3.42;;;2.83;;
23046;SDS011;11691;51.462;6.902;2023-08-06T05:30:27;6.72;;;3.08;;
23046;SDS011;11691;51.462;6.902;2023-08-06T05:32:53;4.35;;;2.50;;
23046;SDS011;11691;51.462;6.902;2023-08-06T05:35:20;4.07;;;2.47;;
23046;SDS011;11691;51.462;6.902;2023-08-06T05:37:46;3.20;;;2.35;;
23046;SDS011;11691;51.462;6.902;2023-08-06T05:40:12;5.35;;;2.60;;
23046;SDS011;11691;51.462;6.902;2023-08-06T05:42:38;4.13;;;2.80;;
23046;SDS011;11691;51.462;6.902;2023-08-06T05:45:05;4.20;;;3.08;;
23046;SDS011;11691;51.462;6.902;2023-08-06T05:47:31;4.07;;;2.58;;
23046;SDS011;11691;51.462;6.902;2023-08-06T05:49:57;3.65;;;2.60;;
23046;SDS011;11691;51.462;6.902;2023-08-06T05:52:23;5.10;;;3.00;;
23046;SDS011;11691;51.462;6.902;2023-08-06T05:54:49;4.55;;;2.40;;
23046;SDS011;11691;51.462;6.902;2023-08-06T05:57:15;3.92;;;2.50;;
23046;SDS011;11691;51.462;6.902;2023-08-06T05:59:41;3.38;;;2.35;;
23046;SDS011;11691;51.462;6.902;2023-08-06T06:02:07;5.07;;;2.55;;
23046;SDS011;11691;51.462;6.902;2023-08-06T06:04:34;4.10;;;2.78;;
23046;SDS011;11691;51.462;6.902;2023-08-06T06:07:00;4.38;;;3.05;;
23046;SDS011;11691;51.462;6.902;2023-08-06T06:09:26;4.43;;;2.33;;
23046;SDS011;11691;51.462;6.902;2023-08-06T06:11:52;4.85;;;2.20;;
23046;SDS011;11691;51.462;6.902;2023-08-06T06:14:18;6.07;;;2.67;;
23046;SDS011;11691;51.462;6.902;2023-08-06T06:16:44;6.80;;;2.50;;
23046;SDS011;11691;51.462;6.902;2023-08-06T06:19:10;3.28;;;2.28;;
23046;SDS011;11691;51.462;6.902;2023-08-06T06:21:37;4.72;;;2.05;;
23046;SDS011;11691;51.462;6.902;2023-08-06T06:24:04;2.85;;;2.03;;
23046;SDS011;11691;51.462;6.902;2023-08-06T06:26:30;3.88;;;2.10;;
23046;SDS011;11691;51.462;6.902;2023-08-06T06:28:56;2.22;;;1.80;;
23046;SDS011;11691;51.462;6.902;2023-08-06T06:31:22;3.83;;;2.05;;
23046;SDS011;11691;51.462;6.902;2023-08-06T06:33:48;4.60;;;2.38;;
23046;SDS011;11691;51.462;6.902;2023-08-06T06:36:14;4.43;;;1.77;;
23046;SDS011;11691;51.462;6.902;2023-08-06T06:38:40;2.33;;;1.60;;
23046;SDS011;11691;51.462;6.902;2023-08-06T06:41:06;2.15;;;1.50;;
23046;SDS011;11691;51.462;6.902;2023-08-06T06:43:32;3.40;;;2.00;;
23046;SDS011;11691;51.462;6.902;2023-08-06T06:45:59;5.70;;;1.73;;
23046;SDS011;11691;51.462;6.902;2023-08-06T06:48:26;3.60;;;1.88;;
23046;SDS011;11691;51.462;6.902;2023-08-06T06:50:52;3.05;;;1.90;;
23046;SDS011;11691;51.462;6.902;2023-08-06T06:53:18;2.85;;;2.13;;
23046;SDS011;11691;51.462;6.902;2023-08-06T06:55:44;2.67;;;1.85;;
23046;SDS011;11691;51.462;6.902;2023-08-06T06:58:14;5.20;;;2.10;;
23046;SDS011;11691;51.462;6.902;2023-08-06T07:00:39;3.83;;;1.90;;
23046;SDS011;11691;51.462;6.902;2023-08-06T07:03:06;4.05;;;2.10;;
23046;SDS011;11691;51.462;6.902;2023-08-06T07:05:32;3.80;;;1.98;;
23046;SDS011;11691;51.462;6.902;2023-08-06T07:07:58;3.35;;;1.73;;
23046;SDS011;11691;51.462;6.902;2023-08-06T07:10:25;5.10;;;2.10;;
23046;SDS011;11691;51.462;6.902;2023-08-06T07:12:51;5.28;;;1.80;;
23046;SDS011;11691;51.462;6.902;2023-08-06T07:15:16;5.32;;;2.10;;
23046;SDS011;11691;51.462;6.902;2023-08-06T07:17:43;3.42;;;2.38;;
23046;SDS011;11691;51.462;6.902;2023-08-06T07:20:09;3.50;;;2.10;;
23046;SDS011;11691;51.462;6.902;2023-08-06T07:22:35;4.55;;;1.98;;
23046;SDS011;11691;51.462;6.902;2023-08-06T07:25:01;2.13;;;1.50;;
23046;SDS011;11691;51.462;6.902;2023-08-06T07:27:27;3.63;;;1.70;;
23046;SDS011;11691;51.462;6.902;2023-08-06T07:29:53;4.75;;;2.05;;
23046;SDS011;11691;51.462;6.902;2023-08-06T07:32:19;9.93;;;2.38;;
23046;SDS011;11691;51.462;6.902;2023-08-06T07:34:45;3.72;;;1.95;;
23046;SDS011;11691;51.462;6.902;2023-08-06T07:37:11;6.38;;;1.90;;
23046;SDS011;11691;51.462;6.902;2023-08-06T07:39:37;2.70;;;1.73;;
23046;SDS011;11691;51.462;6.902;2023-08-06T07:42:04;2.35;;;1.60;;
23046;SDS011;11691;51.462;6.902;2023-08-06T07:44:32;2.92;;;1.67;;
23046;SDS011;11691;51.462;6.902;2023-08-06T07:46:58;4.85;;;1.55;;
23046;SDS011;11691;51.462;6.902;2023-08-06T07:49:23;3.75;;;1.50;;
23046;SDS011;11691;51.462;6.902;2023-08-06T07:51:50;2.45;;;1.40;;
23046;SDS011;11691;51.462;6.902;2023-08-06T07:54:17;2.35;;;1.33;;
23046;SDS011;11691;51.462;6.902;2023-08-06T07:56:43;2.20;;;1.50;;
23046;SDS011;11691;51.462;6.902;2023-08-06T07:59:09;3.15;;;1.33;;
23046;SDS011;11691;51.462;6.902;2023-08-06T08:01:35;2.42;;;1.52;;
23046;SDS011;11691;51.462;6.902;2023-08-06T08:04:01;2.83;;;1.40;;
23046;SDS011;11691;51.462;6.902;2023-08-06T08:06:27;2.60;;;1.60;;
23046;SDS011;11691;51.462;6.902;2023-08-06T08:08:53;2.40;;;1.48;;
23046;SDS011;11691;51.462;6.902;2023-08-06T08:11:20;1.40;;;1.27;;
23046;SDS011;11691;51.462;6.902;2023-08-06T08:13:46;5.53;;;1.50;;
23046;SDS011;11691;51.462;6.902;2023-08-06T08:16:12;5.97;;;1.77;;
23046;SDS011;11691;51.462;6.902;2023-08-06T08:18:38;2.95;;;1.33;;
23046;SDS011;11691;51.462;6.902;2023-08-06T08:21:04;3.40;;;1.50;;
23046;SDS011;11691;51.462;6.902;2023-08-06T08:23:30;1.88;;;1.50;;
23046;SDS011;11691;51.462;6.902;2023-08-06T08:25:56;3.75;;;1.50;;
23046;SDS011;11691;51.462;6.902;2023-08-06T08:28:22;3.78;;;1.50;;
23046;SDS011;11691;51.462;6.902;2023-08-06T08:30:48;3.08;;;1.75;;
23046;SDS011;11691;51.462;6.902;2023-08-06T08:33:14;3.53;;;1.50;;
23046;SDS011;11691;51.462;6.902;2023-08-06T08:35:40;2.50;;;1.10;;
23046;SDS011;11691;51.462;6.902;2023-08-06T08:38:06;1.85;;;1.30;;
23046;SDS011;11691;51.462;6.902;2023-08-06T08:40:32;2.55;;;1.50;;
23046;SDS011;11691;51.462;6.902;2023-08-06T08:43:06;2.45;;;1.30;;
23046;SDS011;11691;51.462;6.902;2023-08-06T08:45:32;3.67;;;1.42;;
23046;SDS011;11691;51.462;6.902;2023-08-06T08:48:04;3.65;;;1.00;;
23046;SDS011;11691;51.462;6.902;2023-08-06T08:50:30;1.70;;;1.30;;
23046;SDS011;11691;51.462;6.902;2023-08-06T08:52:56;2.80;;;1.60;;
23046;SDS011;11691;51.462;6.902;2023-08-06T08:55:22;2.95;;;1.60;;
23046;SDS011;11691;51.462;6.902;2023-08-06T08:57:48;2.72;;;1.63;;
23046;SDS011;11691;51.462;6.902;2023-08-06T09:00:14;2.58;;;1.60;;
23046;SDS011;11691;51.462;6.902;2023-08-06T09:02:40;2.22;;;1.60;;
23046;SDS011;11691;51.462;6.902;2023-08-06T09:05:08;3.63;;;1.75;;
23046;SDS011;11691;51.462;6.902;2023-08-06T09:07:45;4.45;;;1.60;;
23046;SDS011;11691;51.462;6.902;2023-08-06T09:10:12;3.50;;;1.77;;
23046;SDS011;11691;51.462;6.902;2023-08-06T09:12:40;4.55;;;2.20;;
23046;SDS011;11691;51.462;6.902;2023-08-06T09:15:06;5.25;;;2.60;;
23046;SDS011;11691;51.462;6.902;2023-08-06T09:17:32;3.78;;;2.75;;
23046;SDS011;11691;51.462;6.902;2023-08-06T09:19:58;7.80;;;3.65;;
23046;SDS011;11691;51.462;6.902;2023-08-06T09:22:24;5.55;;;3.60;;
23046;SDS011;11691;51.462;6.902;2023-08-06T09:24:50;5.35;;;4.07;;
23046;SDS011;11691;51.462;6.902;2023-08-06T09:27:16;5.95;;;3.85;;
23046;SDS011;11691;51.462;6.902;2023-08-06T09:29:44;5.95;;;3.72;;
23046;SDS011;11691;51.462;6.902;2023-08-06T09:32:11;6.85;;;4.07;;
23046;SDS011;11691;51.462;6.902;2023-08-06T09:34:41;10.50;;;4.07;;
23046;SDS011;11691;51.462;6.902;2023-08-06T09:37:11;7.57;;;4.63;;
23046;SDS011;11691;51.462;6.902;2023-08-06T09:39:38;7.95;;;4.50;;
23046;SDS011;11691;51.462;6.902;2023-08-06T09:42:05;5.80;;;4.30;;
23046;SDS011;11691;51.462;6.902;2023-08-06T09:44:31;6.15;;;4.53;;
23046;SDS011;11691;51.462;6.902;2023-08-06T09:46:59;7.03;;;4.03;;
23046;SDS011;11691;51.462;6.902;2023-08-06T09:51:58;7.85;;;4.65;;
23046;SDS011;11691;51.462;6.902;2023-08-06T09:54:25;6.57;;;4.30;;
23046;SDS011;11691;51.462;6.902;2023-08-06T09:56:55;5.45;;;4.40;;
23046;SDS011;11691;51.462;6.902;2023-08-06T09:59:22;9.35;;;4.18;;
23046;SDS011;11691;51.462;6.902;2023-08-06T10:01:48;5.20;;;4.03;;
23046;SDS011;11691;51.462;6.902;2023-08-06T10:04:14;5.30;;;3.70;;
23046;SDS011;11691;51.462;6.902;2023-08-06T10:06:41;6.28;;;3.92;;
23046;SDS011;11691;51.462;6.902;2023-08-06T10:09:07;5.88;;;3.35;;
23046;SDS011;11691;51.462;6.902;2023-08-06T10:11:34;4.85;;;2.97;;
23046;SDS011;11691;51.462;6.902;2023-08-06T10:16:56;5.00;;;2.60;;
23046;SDS011;11691;51.462;6.902;2023-08-06T10:19:23;5.30;;;3.25;;
23046;SDS011;11691;51.462;6.902;2023-08-06T10:22:07;4.60;;;3.03;;
23046;SDS011;11691;51.462;6.902;2023-08-06T10:27:28;6.03;;;2.63;;
23046;SDS011;11691;51.462;6.902;2023-08-06T10:29:55;2.60;;;2.38;;
23046;SDS011;11691;51.462;6.902;2023-08-06T10:32:21;3.17;;;2.50;;
23046;SDS011;11691;51.462;6.902;2023-08-06T10:34:57;4.65;;;3.60;;
23046;SDS011;11691;51.462;6.902;2023-08-06T10:37:36;4.95;;;3.08;;
23046;SDS011;11691;51.462;6.902;2023-08-06T10:40:02;5.07;;;3.40;;
23046;SDS011;11691;51.462;6.902;2023-08-06T10:42:31;4.70;;;3.33;;
23046;SDS011;11691;51.462;6.902;2023-08-06T10:45:16;5.22;;;3.35;;
23046;SDS011;11691;51.462;6.902;2023-08-06T10:47:43;5.93;;;3.03;;
23046;SDS011;11691;51.462;6.902;2023-08-06T10:50:13;5.30;;;3.50;;
23046;SDS011;11691;51.462;6.902;2023-08-06T10:52:41;4.18;;;3.75;;
23046;SDS011;11691;51.462;6.902;2023-08-06T10:55:07;4.85;;;3.33;;
23046;SDS011;11691;51.462;6.902;2023-08-06T10:57:34;6.05;;;3.90;;
23046;SDS011;11691;51.462;6.902;2023-08-06T11:00:00;5.55;;;4.90;;
23046;SDS011;11691;51.462;6.902;2023-08-06T11:02:26;8.50;;;4.90;;
23046;SDS011;11691;51.462;6.902;2023-08-06T11:04:52;6.03;;;5.53;;
23046;SDS011;11691;51.462;6.902;2023-08-06T11:07:18;4.93;;;4.38;;
23046;SDS011;11691;51.462;6.902;2023-08-06T11:09:49;4.05;;;3.65;;
23046;SDS011;11691;51.462;6.902;2023-08-06T11:12:18;5.25;;;4.70;;
23046;SDS011;11691;51.462;6.902;2023-08-06T11:14:49;5.25;;;4.78;;
23046;SDS011;11691;51.462;6.902;2023-08-06T11:17:15;5.40;;;4.38;;
23046;SDS011;11691;51.462;6.902;2023-08-06T11:19:41;3.72;;;2.90;;
23046;SDS011;11691;51.462;6.902;2023-08-06T11:22:07;2.30;;;1.70;;
23046;SDS011;11691;51.462;6.902;2023-08-06T11:24:33;1.92;;;1.40;;
23046;SDS011;11691;51.462;6.902;2023-08-06T11:26:59;1.60;;;1.25;;
23046;SDS011;11691;51.462;6.902;2023-08-06T11:29:26;2.47;;;1.90;;
23046;SDS011;11691;51.462;6.902;2023-08-06T11:31:52;2.38;;;1.95;;
23046;SDS011;11691;51.462;6.902;2023-08-06T11:34:18;3.17;;;2.30;;
23046;SDS011;11691;51.462;6.902;2023-08-06T11:36:44;2.30;;;1.60;;
23046;SDS011;11691;51.462;6.902;2023-08-06T11:39:11;1.77;;;1.67;;
23046;SDS011;11691;51.462;6.902;2023-08-06T11:41:37;1.58;;;1.45;;
23046;SDS011;11691;51.462;6.902;2023-08-06T11:44:04;2.50;;;2.30;;
23046;SDS011;11691;51.462;6.902;2023-08-06T11:46:49;2.40;;;2.20;;
23046;SDS011;11691;51.462;6.902;2023-08-06T11:49:16;2.45;;;2.08;;
23046;SDS011;11691;51.462;6.902;2023-08-06T11:51:44;2.83;;;2.33;;
23046;SDS011;11691;51.462;6.902;2023-08-06T11:54:10;4.60;;;3.10;;
23046;SDS011;11691;51.462;6.902;2023-08-06T11:56:36;4.47;;;3.40;;
23046;SDS011;11691;51.462;6.902;2023-08-06T11:59:02;3.40;;;3.10;;
23046;SDS011;11691;51.462;6.902;2023-08-06T12:01:28;3.20;;;2.85;;
23046;SDS011;11691;51.462;6.902;2023-08-06T12:03:58;3.33;;;2.25;;
23046;SDS011;11691;51.462;6.902;2023-08-06T12:06:26;3.60;;;2.03;;
23046;SDS011;11691;51.462;6.902;2023-08-06T12:08:52;3.30;;;1.73;;
23046;SDS011;11691;51.462;6.902;2023-08-06T12:11:20;2.28;;;1.52;;
23046;SDS011;11691;51.462;6.902;2023-08-06T12:13:50;4.20;;;1.63;;
23046;SDS011;11691;51.462;6.902;2023-08-06T12:16:16;2.33;;;1.60;;
23046;SDS011;11691;51.462;6.902;2023-08-06T12:18:43;2.15;;;1.45;;
23046;SDS011;11691;51.462;6.902;2023-08-06T12:21:10;5.97;;;1.67;;
23046;SDS011;11691;51.462;6.902;2023-08-06T12:23:36;2.35;;;1.52;;
23046;SDS011;11691;51.462;6.902;2023-08-06T12:26:02;2.33;;;1.33;;
23046;SDS011;11691;51.462;6.902;2023-08-06T12:28:28;3.30;;;1.70;;
23046;SDS011;11691;51.462;6.902;2023-08-06T12:30:54;4.00;;;1.88;;
23046;SDS011;11691;51.462;6.902;2023-08-06T12:33:20;2.80;;;1.98;;
23046;SDS011;11691;51.462;6.902;2023-08-06T12:35:46;2.88;;;1.65;;
23046;SDS011;11691;51.462;6.902;2023-08-06T12:38:12;2.10;;;1.42;;
23046;SDS011;11691;51.462;6.902;2023-08-06T12:40:38;4.22;;;1.83;;
23046;SDS011;11691;51.462;6.902;2023-08-06T12:43:04;4.55;;;2.00;;
23046;SDS011;11691;51.462;6.902;2023-08-06T12:45:30;3.95;;;2.08;;
23046;SDS011;11691;51.462;6.902;2023-08-06T12:47:56;3.33;;;1.90;;
23046;SDS011;11691;51.462;6.902;2023-08-06T12:50:22;9.65;;;3.42;;
23046;SDS011;11691;51.462;6.902;2023-08-06T12:52:48;4.43;;;3.30;;
23046;SDS011;11691;51.462;6.902;2023-08-06T12:55:14;5.10;;;3.63;;
23046;SDS011;11691;51.462;6.902;2023-08-06T12:57:40;3.92;;;3.42;;
23046;SDS011;11691;51.462;6.902;2023-08-06T13:00:06;4.63;;;2.88;;
23046;SDS011;11691;51.462;6.902;2023-08-06T13:02:32;3.30;;;2.97;;
23046;SDS011;11691;51.462;6.902;2023-08-06T13:04:58;4.60;;;3.03;;
23046;SDS011;11691;51.462;6.902;2023-08-06T13:07:24;2.40;;;2.20;;
23046;SDS011;11691;51.462;6.902;2023-08-06T13:09:50;2.38;;;2.17;;
23046;SDS011;11691;51.462;6.902;2023-08-06T13:12:16;2.83;;;2.53;;
23046;SDS011;11691;51.462;6.902;2023-08-06T13:14:45;3.55;;;2.55;;
23046;SDS011;11691;51.462;6.902;2023-08-06T13:17:11;3.15;;;2.72;;
23046;SDS011;11691;51.462;6.902;2023-08-06T13:19:37;4.38;;;2.85;;
23046;SDS011;11691;51.462;6.902;2023-08-06T13:22:03;3.90;;;2.90;;
23046;SDS011;11691;51.462;6.902;2023-08-06T13:24:31;6.03;;;3.30;;
23046;SDS011;11691;51.462;6.902;2023-08-06T13:26:57;3.03;;;2.00;;
23046;SDS011;11691;51.462;6.902;2023-08-06T13:29:24;3.67;;;2.50;;
23046;SDS011;11691;51.462;6.902;2023-08-06T13:31:50;3.53;;;2.72;;
23046;SDS011;11691;51.462;6.902;2023-08-06T13:34:16;4.53;;;3.17;;
23046;SDS011;11691;51.462;6.902;2023-08-06T13:36:42;3.90;;;2.60;;
23046;SDS011;11691;51.462;6.902;2023-08-06T13:39:08;4.13;;;2.60;;
23046;SDS011;11691;51.462;6.902;2023-08-06T13:41:34;3.58;;;2.67;;
23046;SDS011;11691;51.462;6.902;2023-08-06T13:44:00;3.72;;;2.60;;
23046;SDS011;11691;51.462;6.902;2023-08-06T13:46:26;3.30;;;2.67;;
23046;SDS011;11691;51.462;6.902;2023-08-06T13:48:51;5.20;;;3.08;;
23046;SDS011;11691;51.462;6.902;2023-08-06T13:51:18;5.22;;;3.50;;
23046;SDS011;11691;51.462;6.902;2023-08-06T13:53:44;4.40;;;2.92;;
23046;SDS011;11691;51.462;6.902;2023-08-06T13:56:10;6.72;;;3.85;;
23046;SDS011;11691;51.462;6.902;2023-08-06T13:58:36;7.28;;;4.10;;
23046;SDS011;11691;51.462;6.902;2023-08-06T14:01:02;7.35;;;3.63;;
23046;SDS011;11691;51.462;6.902;2023-08-06T14:03:28;6.05;;;3.45;;
23046;SDS011;11691;51.462;6.902;2023-08-06T14:05:54;6.65;;;3.50;;
23046;SDS011;11691;51.462;6.902;2023-08-06T14:08:21;6.07;;;3.60;;
23046;SDS011;11691;51.462;6.902;2023-08-06T14:10:48;6.00;;;3.33;;
23046;SDS011;11691;51.462;6.902;2023-08-06T14:13:14;6.65;;;3.33;;
23046;SDS011;11691;51.462;6.902;2023-08-06T14:15:39;5.20;;;3.50;;
23046;SDS011;11691;51.462;6.902;2023-08-06T14:18:06;4.75;;;3.30;;
23046;SDS011;11691;51.462;6.902;2023-08-06T14:20:35;5.53;;;3.55;;
23046;SDS011;11691;51.462;6.902;2023-08-06T14:23:01;4.47;;;3.25;;
23046;SDS011;11691;51.462;6.902;2023-08-06T14:25:27;4.05;;;2.55;;
23046;SDS011;11691;51.462;6.902;2023-08-06T14:27:53;3.88;;;2.55;;
23046;SDS011;11691;51.462;6.902;2023-08-06T14:30:19;6.50;;;2.88;;
23046;SDS011;11691;51.462;6.902;2023-08-06T14:32:45;3.53;;;3.00;;
23046;SDS011;11691;51.462;6.902;2023-08-06T14:35:11;3.58;;;2.42;;
23046;SDS011;11691;51.462;6.902;2023-08-06T14:37:37;3.60;;;2.53;;
23046;SDS011;11691;51.462;6.902;2023-08-06T14:40:04;4.10;;;2.95;;
23046;SDS011;11691;51.462;6.902;2023-08-06T14:42:30;6.40;;;2.58;;
23046;SDS011;11691;51.462;6.902;2023-08-06T14:44:56;5.10;;;2.70;;
23046;SDS011;11691;51.462;6.902;2023-08-06T14:47:22;8.27;;;3.00;;
23046;SDS011;11691;51.462;6.902;2023-08-06T14:49:48;5.80;;;3.05;;
23046;SDS011;11691;51.462;6.902;2023-08-06T14:52:15;5.05;;;3.08;;
23046;SDS011;11691;51.462;6.902;2023-08-06T14:54:41;5.75;;;2.80;;
23046;SDS011;11691;51.462;6.902;2023-08-06T14:57:08;7.47;;;2.75;;
23046;SDS011;11691;51.462;6.902;2023-08-06T14:59:34;5.40;;;2.63;;
23046;SDS011;11691;51.462;6.902;2023-08-06T15:02:00;3.72;;;2.55;;